createdAt,value
2022-10-20T05:11:03.513Z,100180.28
2022-10-20T05:17:15.458Z,100164.38
2022-10-20T05:19:47.359Z,100172.31
2022-10-20T05:22:19.018Z,100165.31
2022-10-20T05:24:53.590Z,100170.19
2022-10-20T05:27:26.423Z,100170.94
2022-10-20T05:29:58.082Z,100175.31
2022-10-20T05:32:34.127Z,100169.34
2022-10-20T05:35:06.821Z,100178.78
2022-10-20T05:37:38.637Z,100182.94
2022-10-20T05:40:12.481Z,100177.38
2022-10-20T05:42:44.493Z,100188.34
2022-10-20T05:45:16.784Z,100182.41
2022-10-20T05:47:48.874Z,100193.88
2022-10-20T05:50:22.796Z,100191.16
2022-10-20T05:52:55.056Z,100191.81
2022-10-20T05:55:26.783Z,100194.72
2022-10-20T05:57:58.434Z,100193.06
2022-10-20T06:00:34.115Z,100196.41
2022-10-20T06:03:06.856Z,100192.34
2022-10-20T06:05:39.612Z,100195.38
2022-10-20T06:08:11.359Z,100199.09
2022-10-20T06:10:43.089Z,100190.59
2022-10-20T06:13:14.711Z,100196.97
2022-10-20T06:15:47.743Z,100196.91
2022-10-20T06:18:19.484Z,100194.53
2022-10-20T06:21:00.993Z,100182.53
2022-10-20T06:23:33.156Z,100178.94
2022-10-20T06:26:19.615Z,100173.75
2022-10-20T06:28:59.848Z,100169.25
2022-10-20T06:31:40.720Z,100172.69
2022-10-20T06:34:19.601Z,100182.75
2022-10-20T06:36:51.675Z,100182.06
2022-10-20T06:39:24.733Z,100168.59
2022-10-20T06:41:59.549Z,100174.81
2022-10-20T06:44:36.468Z,100179.06
2022-10-20T06:47:10.286Z,100175.34
2022-10-20T06:49:41.990Z,100181.94
2022-10-20T06:52:13.743Z,100174.78
2022-10-20T06:54:45.427Z,100168.28
2022-10-20T06:57:17.106Z,100166.16
2022-10-20T06:59:48.829Z,100171.31
2022-10-20T07:02:21.890Z,100160.50
2022-10-20T07:04:53.720Z,100167.41
2022-10-20T07:07:25.504Z,100162.56
2022-10-20T07:09:57.228Z,100171.50
2022-10-20T07:12:28.978Z,100168.66
2022-10-20T07:15:00.696Z,100170.22
2022-10-20T07:17:32.383Z,100177.06
2022-10-20T07:20:04.516Z,100169.81
2022-10-20T07:22:37.552Z,100169.91
2022-10-20T07:25:09.770Z,100174.94
2022-10-20T07:27:41.680Z,100172.22
2022-10-20T07:30:14.255Z,100168.88
2022-10-20T07:32:46.177Z,100174.78
2022-10-20T07:35:18.035Z,100168.19
2022-10-20T07:37:50.588Z,100172.03
2022-10-20T07:40:22.312Z,100169.00
2022-10-20T07:42:54.536Z,100171.34
2022-10-20T07:45:26.400Z,100166.38
2022-10-20T07:47:59.422Z,100161.13
2022-10-20T07:50:33.795Z,100164.34
2022-10-20T07:53:06.501Z,100167.16
2022-10-20T07:55:40.097Z,100160.34
2022-10-20T07:58:12.572Z,100165.56
2022-10-20T08:00:44.454Z,100154.78
2022-10-20T08:03:16.248Z,100154.72
2022-10-20T08:05:47.879Z,100163.75
2022-10-20T08:08:20.606Z,100158.47
2022-10-20T08:10:54.965Z,100150.31
2022-10-20T08:13:27.218Z,100152.72
2022-10-20T08:16:02.192Z,100157.41
2022-10-20T08:18:50.186Z,100158.72
2022-10-20T08:21:22.994Z,100167.53
2022-10-20T08:23:54.765Z,100160.53
2022-10-20T08:26:26.757Z,100158.75
2022-10-20T08:28:58.554Z,100153.69
2022-10-20T08:31:30.716Z,100154.81
2022-10-20T08:34:02.499Z,100151.28
2022-10-20T08:36:43.189Z,100151.38
2022-10-20T08:39:14.926Z,100145.50
2022-10-20T08:42:06.940Z,100138.38
2022-10-20T08:44:44.634Z,100138.03
2022-10-20T08:47:40.698Z,100127.00
2022-10-20T08:50:16.438Z,100115.13
2022-10-20T08:52:54.315Z,100118.34
2022-10-20T08:55:31.864Z,100121.72
2022-10-20T08:58:13.391Z,100112.94
2022-10-20T09:00:55.032Z,100101.09
2022-10-20T09:03:33.255Z,100103.44
2022-10-20T09:06:16.285Z,100103.28
2022-10-20T09:08:49.222Z,100101.16
2022-10-20T09:11:36.681Z,100106.38
2022-10-20T09:14:11.127Z,100092.31
2022-10-20T09:16:59.228Z,100092.47
2022-10-20T09:19:32.745Z,100089.56
2022-10-20T09:22:06.882Z,100081.41
2022-10-20T09:24:38.776Z,100077.66
2022-10-20T09:27:21.451Z,100078.81
2022-10-20T09:29:53.327Z,100074.81
2022-10-20T09:32:49.349Z,100067.91
2022-10-20T09:35:36.192Z,100070.34
2022-10-20T09:38:10.465Z,100068.00
2022-10-20T09:41:21.664Z,100068.41
2022-10-20T09:44:00.532Z,100064.38
2022-10-20T09:46:40.163Z,100065.25
2022-10-20T09:49:28.784Z,100058.97
2022-10-20T09:52:03.132Z,100059.59
2022-10-20T09:54:34.872Z,100048.66
2022-10-20T09:57:19.034Z,100053.34
2022-10-20T09:59:53.771Z,100061.09
2022-10-20T10:02:32.142Z,100050.69
2022-10-20T10:05:19.028Z,100046.63
2022-10-20T10:08:04.771Z,100050.50
2022-10-20T10:10:36.441Z,100039.94
2022-10-20T10:13:24.746Z,100054.59
2022-10-20T10:16:07.244Z,100051.53
2022-10-20T10:18:39.276Z,100050.19
2022-10-20T10:21:14.941Z,100047.53
2022-10-20T10:23:59.673Z,100039.69
2022-10-20T10:26:51.857Z,100033.38
2022-10-20T10:29:29.442Z,100029.28
2022-10-20T10:32:15.323Z,100034.06
2022-10-20T10:35:24.535Z,100013.59
2022-10-20T10:38:00.297Z,100015.72
2022-10-20T10:40:38.864Z,100012.03
2022-10-20T10:43:29.881Z,99997.22
2022-10-20T10:46:14.508Z,99999.44
2022-10-20T10:49:04.939Z,99985.63
2022-10-20T10:52:07.924Z,99989.38
2022-10-20T10:54:56.481Z,99984.84
2022-10-20T10:57:32.617Z,99993.50
2022-10-20T11:00:17.454Z,99986.28
2022-10-20T11:03:03.566Z,99978.22
2022-10-20T11:05:53.832Z,99966.69
2022-10-20T11:08:55.658Z,99960.69
2022-10-20T11:11:45.386Z,99955.44
2022-10-20T11:14:23.321Z,99960.09
2022-10-20T11:17:18.992Z,99951.50
2022-10-20T11:20:04.810Z,99935.81
2022-10-20T11:22:36.572Z,99936.41
2022-10-20T11:25:20.653Z,99933.22
2022-10-20T11:27:52.485Z,99931.00
2022-10-20T11:30:27.432Z,99921.63
2022-10-20T11:33:12.270Z,99921.84
2022-10-20T11:35:51.459Z,99924.09
2022-10-20T11:38:31.421Z,99922.03
2022-10-20T11:41:30.248Z,99918.72
2022-10-20T11:44:30.385Z,99912.81
2022-10-20T11:47:09.933Z,99905.78
2022-10-20T11:49:42.181Z,99900.38
2022-10-20T11:52:32.717Z,99889.03
2022-10-20T11:55:18.725Z,99888.56
2022-10-20T11:58:05.196Z,99879.44
2022-10-20T12:01:07.474Z,99876.22
2022-10-20T12:04:05.362Z,99879.72
2022-10-20T12:07:08.284Z,99878.69
2022-10-20T12:10:33.783Z,99865.66
2022-10-20T12:13:23.933Z,99866.22
2022-10-20T12:15:55.988Z,99854.69
2022-10-20T12:18:29.816Z,99857.78
2022-10-20T12:21:03.808Z,99841.56
2022-10-20T12:23:53.483Z,99823.84
2022-10-20T12:26:33.154Z,99825.88
2022-10-20T12:29:32.247Z,99809.44
2022-10-20T12:32:25.464Z,99812.13
2022-10-20T12:34:59.171Z,99809.81
2022-10-20T12:37:34.826Z,99795.03
2022-10-20T12:40:07.169Z,99790.28
2022-10-20T12:42:48.717Z,99798.75
2022-10-20T12:45:20.324Z,99781.72
2022-10-20T12:48:03.014Z,99796.72
2022-10-20T12:50:40.553Z,99790.16
2022-10-20T12:53:26.690Z,99786.00
2022-10-20T12:56:07.895Z,99783.31
2022-10-20T12:59:17.880Z,99777.34
2022-10-20T13:02:11.541Z,99770.94
2022-10-20T13:04:52.211Z,99773.84
2022-10-20T13:07:48.900Z,99773.06
2022-10-20T13:10:38.525Z,99769.16
2022-10-20T13:13:10.204Z,99771.00
2022-10-20T13:15:44.834Z,99751.63
2022-10-20T13:18:29.158Z,99750.81
2022-10-20T13:21:03.574Z,99740.94
2022-10-20T13:24:13.430Z,99746.50
2022-10-20T13:26:54.284Z,99744.88
2022-10-20T13:29:36.515Z,99752.72
2022-10-20T13:32:19.270Z,99762.38
2022-10-20T13:34:53.895Z,99759.91
2022-10-20T13:37:44.131Z,99756.16
2022-10-20T13:40:45.778Z,99754.31
2022-10-20T13:43:42.273Z,99754.09
2022-10-20T13:46:37.127Z,99759.88
2022-10-20T13:49:22.752Z,99766.91
2022-10-20T13:52:00.762Z,99766.66
2022-10-20T13:54:36.013Z,99759.13
2022-10-20T13:57:14.452Z,99765.88
2022-10-20T13:59:59.144Z,99760.06
2022-10-20T14:02:35.117Z,99753.19
2022-10-20T14:05:12.357Z,99744.72
2022-10-20T14:07:45.026Z,99748.72
2022-10-20T14:10:43.814Z,99737.34
2022-10-20T14:13:19.165Z,99733.56
2022-10-20T14:15:55.785Z,99727.34
2022-10-20T14:18:32.399Z,99719.59
2022-10-20T14:21:08.524Z,99723.75
2022-10-20T14:23:42.488Z,99711.56
2022-10-20T14:26:18.865Z,99716.53
2022-10-20T14:28:52.157Z,99708.56
2022-10-20T14:31:25.275Z,99710.91
2022-10-20T14:33:57.234Z,99706.03
2022-10-20T14:36:30.554Z,99697.31
2022-10-20T14:39:04.183Z,99696.66
2022-10-20T14:41:36.546Z,99703.13
2022-10-20T14:44:23.901Z,99703.06
2022-10-20T14:47:06.258Z,99712.53
2022-10-20T14:49:40.939Z,99710.88
2022-10-20T14:52:21.243Z,99728.09
2022-10-20T14:54:56.839Z,99721.38
2022-10-20T14:57:37.901Z,99715.88
2022-10-20T15:00:32.506Z,99713.78
2022-10-20T15:03:11.698Z,99714.47
2022-10-20T15:05:45.171Z,99710.72
2022-10-20T15:08:34.656Z,99703.50
2022-10-20T15:11:27.252Z,99703.50
2022-10-20T15:14:00.390Z,99707.34
2022-10-20T15:16:44.379Z,99705.09
2022-10-20T15:19:29.202Z,99703.75
2022-10-20T15:22:07.079Z,99698.34
2022-10-20T15:24:39.950Z,99701.56
2022-10-20T15:27:15.887Z,99694.47
2022-10-20T15:29:50.570Z,99693.16
2022-10-20T15:32:22.119Z,99685.72
2022-10-20T15:34:53.808Z,99686.53
2022-10-20T15:37:25.425Z,99676.81
2022-10-20T15:39:57.095Z,99665.66
2022-10-20T15:42:28.871Z,99662.47
2022-10-20T15:45:00.541Z,99658.88
2022-10-20T15:47:32.280Z,99653.66
2022-10-20T15:50:04.089Z,99653.75
2022-10-20T15:52:37.974Z,99658.97
2022-10-20T15:55:27.238Z,99657.22
2022-10-20T15:57:59.394Z,99659.59
2022-10-20T16:00:31.155Z,99657.38
2022-10-20T16:03:03.825Z,99657.59
2022-10-20T16:05:35.687Z,99655.38
2022-10-20T16:08:07.383Z,99649.88
2022-10-20T16:10:39.585Z,99654.75
2022-10-20T16:13:12.333Z,99661.88
2022-10-20T16:15:44.415Z,99663.22
2022-10-20T16:18:16.102Z,99654.97
2022-10-20T16:20:47.981Z,99660.34
2022-10-20T16:23:20.128Z,99665.03
2022-10-20T16:25:52.156Z,99668.75
2022-10-20T16:28:23.905Z,99674.38
2022-10-20T16:31:10.623Z,99668.31
2022-10-20T16:33:43.048Z,99667.34
2022-10-20T16:36:16.980Z,99669.56
2022-10-20T16:38:48.805Z,99672.06
2022-10-20T16:41:20.714Z,99674.09
2022-10-20T16:43:54.349Z,99682.72
2022-10-20T16:46:27.129Z,99680.78
2022-10-20T16:48:58.869Z,99678.63
2022-10-20T16:51:31.006Z,99695.34
2022-10-20T16:54:03.597Z,99690.94
2022-10-20T16:56:35.457Z,99699.84
2022-10-20T16:59:10.678Z,99696.69
2022-10-20T17:01:42.751Z,99699.84
2022-10-20T17:04:17.383Z,99695.72
2022-10-20T17:06:48.932Z,99701.31
2022-10-20T17:09:23.694Z,99701.16
2022-10-20T17:11:55.996Z,99691.09
2022-10-20T17:14:27.725Z,99680.66
2022-10-20T17:17:01.485Z,99686.09
2022-10-20T17:19:33.288Z,99699.19
2022-10-20T17:22:07.287Z,99696.69
2022-10-20T17:24:39.000Z,99677.38
2022-10-20T17:27:11.206Z,99688.94
2022-10-20T17:29:42.921Z,99699.84
2022-10-20T17:32:17.440Z,99695.56
2022-10-20T17:34:50.022Z,99700.34
2022-10-20T17:37:21.833Z,99703.31
2022-10-20T17:39:53.633Z,99711.44
2022-10-20T17:42:25.533Z,99706.44
2022-10-20T17:44:57.317Z,99713.06
2022-10-20T17:47:29.078Z,99713.72
2022-10-20T17:50:01.029Z,99700.16
2022-10-20T17:52:34.159Z,99701.81
2022-10-20T17:55:06.551Z,99704.56
2022-10-20T17:57:43.270Z,99703.25
2022-10-20T18:00:22.954Z,99706.88
2022-10-20T18:02:59.138Z,99706.22
2022-10-20T18:05:30.852Z,99703.59
2022-10-20T18:08:02.679Z,99708.88
2022-10-20T18:10:34.584Z,99709.72
2022-10-20T18:13:06.459Z,99713.34
2022-10-20T18:15:43.274Z,99715.63
2022-10-20T18:18:15.181Z,99716.09
2022-10-20T18:20:57.412Z,99719.41
2022-10-20T18:23:31.222Z,99706.19
2022-10-20T18:26:13.627Z,99696.75
2022-10-20T18:28:48.492Z,99695.13
2022-10-20T18:31:22.730Z,99692.81
2022-10-20T18:34:04.115Z,99685.84
2022-10-20T18:36:41.886Z,99692.28
2022-10-20T18:39:22.474Z,99691.78
2022-10-20T18:41:56.791Z,99694.41
2022-10-20T18:47:07.067Z,99697.22
2022-10-20T18:49:38.905Z,99697.06
2022-10-20T18:52:13.595Z,99688.59
2022-10-20T18:54:45.385Z,99695.34
2022-10-20T18:57:17.228Z,99678.19
2022-10-20T18:59:50.079Z,99688.25
2022-10-20T19:02:21.991Z,99674.84
2022-10-20T19:04:54.715Z,99676.31
2022-10-20T19:07:26.412Z,99673.97
2022-10-20T19:09:58.475Z,99666.53
2022-10-20T19:12:34.600Z,99663.69
2022-10-20T19:15:06.745Z,99656.25
2022-10-20T19:17:39.165Z,99653.75
2022-10-20T19:20:11.322Z,99654.06
2022-10-20T19:22:43.999Z,99650.41
2022-10-20T19:25:16.025Z,99635.56
2022-10-20T19:27:48.373Z,99629.78
2022-10-20T19:30:20.265Z,99632.38
2022-10-20T19:32:53.887Z,99634.44
2022-10-20T19:35:25.830Z,99628.59
2022-10-20T19:37:57.575Z,99632.16
2022-10-20T19:40:29.467Z,99628.78
2022-10-20T19:43:01.256Z,99629.25
2022-10-20T19:45:34.474Z,99625.38
2022-10-20T19:48:06.506Z,99622.69
2022-10-20T19:50:39.853Z,99622.59
2022-10-20T19:53:11.741Z,99615.03
2022-10-20T19:55:47.019Z,99618.09
2022-10-20T19:58:20.369Z,99616.13
2022-10-20T20:00:56.171Z,99608.69
2022-10-20T20:03:28.207Z,99609.81
2022-10-20T20:06:07.831Z,99613.97
2022-10-20T20:08:39.745Z,99608.00
2022-10-20T20:11:21.185Z,99616.88
2022-10-20T20:14:08.424Z,99616.53
2022-10-20T20:16:40.887Z,99615.19
2022-10-20T20:19:13.911Z,99615.31
2022-10-20T20:21:46.136Z,99608.38
2022-10-20T20:24:18.042Z,99612.81
2022-10-20T20:26:50.137Z,99608.16
2022-10-20T20:29:21.934Z,99605.53
2022-10-20T20:31:53.825Z,99601.63
2022-10-20T20:34:25.867Z,99590.78
2022-10-20T20:36:57.739Z,99587.03
2022-10-20T20:39:29.564Z,99591.97
2022-10-20T20:42:02.202Z,99588.22
2022-10-20T20:44:34.105Z,99576.03
2022-10-20T20:47:05.855Z,99589.50
2022-10-20T20:49:37.944Z,99580.63
2022-10-20T20:52:09.739Z,99582.06
2022-10-20T20:54:41.534Z,99586.81
2022-10-20T20:57:14.764Z,99595.22
2022-10-20T20:59:46.493Z,99606.13
2022-10-20T21:02:18.336Z,99611.41
2022-10-20T21:04:50.159Z,99613.19
2022-10-20T21:07:21.858Z,99607.78
2022-10-20T21:09:53.524Z,99614.72
2022-10-20T21:12:27.942Z,99609.81
2022-10-20T21:15:06.502Z,99610.41
2022-10-20T21:17:38.214Z,99611.56
2022-10-20T21:20:10.687Z,99618.94
2022-10-20T21:22:43.134Z,99625.34
2022-10-20T21:25:14.849Z,99617.13
2022-10-20T21:27:47.873Z,99617.81
2022-10-20T21:30:19.618Z,99622.94
2022-10-20T21:32:51.503Z,99619.75
2022-10-20T21:35:23.617Z,99602.47
2022-10-20T21:37:55.334Z,99603.72
2022-10-20T21:40:27.029Z,99602.66
2022-10-20T21:42:58.715Z,99607.56
2022-10-20T21:45:30.420Z,99611.47
2022-10-20T21:48:02.433Z,99631.94
2022-10-20T21:50:36.434Z,99642.34
2022-10-20T21:53:08.211Z,99655.31
2022-10-20T21:55:42.924Z,99662.72
2022-10-20T21:58:14.708Z,99655.66
2022-10-20T22:00:48.178Z,99652.03
2022-10-20T22:03:23.657Z,99655.78
2022-10-20T22:05:58.753Z,99647.22
2022-10-20T22:08:30.777Z,99638.25
2022-10-20T22:11:04.696Z,99622.09
2022-10-20T22:13:36.908Z,99613.63
2022-10-20T22:16:12.328Z,99613.25
2022-10-20T22:18:44.103Z,99623.25
2022-10-20T22:21:18.142Z,99622.88
2022-10-20T22:23:55.001Z,99627.16
2022-10-20T22:26:29.177Z,99625.66
2022-10-20T22:29:01.497Z,99627.75
2022-10-20T22:31:33.357Z,99629.81
2022-10-20T22:34:05.966Z,99616.53
2022-10-20T22:36:37.920Z,99608.47
2022-10-20T22:39:10.207Z,99613.44
2022-10-20T22:41:41.911Z,99619.38
2022-10-20T22:44:13.667Z,99622.31
2022-10-20T22:46:45.527Z,99617.19
2022-10-20T22:49:17.249Z,99611.78
2022-10-20T22:51:48.948Z,99617.19
2022-10-20T22:54:20.681Z,99622.31
2022-10-20T22:56:52.871Z,99617.34
2022-10-20T22:59:26.913Z,99627.03
2022-10-20T23:01:58.616Z,99635.19
2022-10-20T23:04:30.356Z,99636.25
2022-10-20T23:09:38.835Z,99630.13
2022-10-20T23:12:10.483Z,99629.97
2022-10-20T23:14:45.092Z,99627.88
2022-10-20T23:17:17.052Z,99633.66
2022-10-20T23:19:48.743Z,99632.69
2022-10-20T23:22:20.909Z,99624.94
2022-10-20T23:24:53.693Z,99630.88
2022-10-20T23:27:25.416Z,99634.78
2022-10-20T23:29:57.116Z,99632.16
2022-10-20T23:32:28.780Z,99631.31
2022-10-20T23:35:00.885Z,99627.88
2022-10-20T23:37:32.848Z,99634.25
2022-10-20T23:40:05.013Z,99641.34
2022-10-20T23:42:36.685Z,99635.38
2022-10-20T23:45:08.863Z,99633.03
2022-10-20T23:47:40.746Z,99639.56
2022-10-20T23:50:15.012Z,99632.66
2022-10-20T23:52:47.996Z,99635.16
2022-10-20T23:55:19.772Z,99629.38
2022-10-20T23:57:51.476Z,99635.59
